createdAt,value
2018-07-22T00:00:42.582Z,999.42
2018-07-22T00:01:42.574Z,999.40
2018-07-22T00:02:42.563Z,999.38
2018-07-22T00:03:42.564Z,999.37
2018-07-22T00:04:42.539Z,999.40
2018-07-22T00:05:42.532Z,999.39
2018-07-22T00:06:42.522Z,999.42
2018-07-22T00:07:42.530Z,999.41
2018-07-22T00:08:42.497Z,999.43
2018-07-22T00:09:42.484Z,999.41
2018-07-22T00:10:42.476Z,999.38
2018-07-22T00:11:42.463Z,999.45
2018-07-22T00:12:42.455Z,999.41
2018-07-22T00:13:42.454Z,999.41
2018-07-22T00:14:42.435Z,999.43
2018-07-22T00:15:42.440Z,999.40
2018-07-22T00:16:42.409Z,999.47
2018-07-22T00:17:42.401Z,999.44
2018-07-22T00:18:42.390Z,999.43
2018-07-22T00:19:42.379Z,999.44
2018-07-22T00:20:42.368Z,999.49
2018-07-22T00:21:42.368Z,999.44
2018-07-22T00:22:42.346Z,999.43
2018-07-22T00:23:42.332Z,999.46
2018-07-22T00:24:42.322Z,999.47
2018-07-22T00:25:42.333Z,999.44
2018-07-22T00:26:42.302Z,999.50
2018-07-22T00:27:42.292Z,999.50
2018-07-22T00:28:42.281Z,999.51
2018-07-22T00:29:42.273Z,999.50
2018-07-22T00:30:42.257Z,999.51
2018-07-22T00:31:42.258Z,999.50
2018-07-22T00:32:42.247Z,999.50
2018-07-22T00:33:42.235Z,999.52
2018-07-22T00:34:42.217Z,999.53
2018-07-22T00:35:42.205Z,999.52
2018-07-22T00:36:42.195Z,999.49
2018-07-22T00:37:42.181Z,999.48
2018-07-22T00:38:42.194Z,999.48
2018-07-22T00:39:42.163Z,999.46
2018-07-22T00:40:42.149Z,999.50
2018-07-22T00:41:42.142Z,999.48
2018-07-22T00:42:42.128Z,999.41
2018-07-22T00:43:42.115Z,999.45
2018-07-22T00:44:42.120Z,999.46
2018-07-22T00:45:42.099Z,999.45
2018-07-22T00:46:42.085Z,999.47
2018-07-22T00:47:42.076Z,999.43
2018-07-22T00:48:42.063Z,999.43
2018-07-22T00:49:42.094Z,999.42
2018-07-22T00:50:42.041Z,999.44
2018-07-22T00:51:42.031Z,999.42
2018-07-22T00:52:42.023Z,999.39
2018-07-22T00:53:42.007Z,999.44
2018-07-22T00:54:41.996Z,999.41
2018-07-22T00:55:42.000Z,999.42
2018-07-22T00:56:41.975Z,999.43
2018-07-22T00:57:41.967Z,999.43
2018-07-22T00:58:41.954Z,999.40
2018-07-22T00:59:41.946Z,999.38
2018-07-22T01:00:41.949Z,999.42
2018-07-22T01:01:41.936Z,999.44
2018-07-22T01:02:45.012Z,999.44
2018-07-22T01:03:41.899Z,999.45
2018-07-22T01:04:41.889Z,999.47
2018-07-22T01:05:41.905Z,999.42
2018-07-22T01:06:41.870Z,999.45
2018-07-22T01:07:41.858Z,999.43
2018-07-22T01:08:41.846Z,999.39
2018-07-22T01:09:41.837Z,999.44
2018-07-22T01:10:41.824Z,999.45
2018-07-22T01:11:41.853Z,999.48
2018-07-22T01:12:41.806Z,999.47
2018-07-22T01:13:41.791Z,999.46
2018-07-22T01:14:41.781Z,999.44
2018-07-22T01:15:41.772Z,999.47
2018-07-22T01:16:41.760Z,999.46
2018-07-22T01:17:41.767Z,999.44
2018-07-22T01:18:41.737Z,999.46
2018-07-22T01:19:41.744Z,999.45
2018-07-22T01:20:41.716Z,999.43
2018-07-22T01:21:41.727Z,999.45
2018-07-22T01:22:41.696Z,999.46
2018-07-22T01:23:41.686Z,999.44
2018-07-22T01:24:41.675Z,999.41
2018-07-22T01:25:41.663Z,999.45
2018-07-22T01:26:41.655Z,999.45
2018-07-22T01:27:41.655Z,999.45
2018-07-22T01:28:41.628Z,999.48
2018-07-22T01:29:41.621Z,999.47
2018-07-22T01:30:41.608Z,999.46
2018-07-22T01:31:41.599Z,999.45
2018-07-22T01:32:41.602Z,999.46
2018-07-22T01:33:41.578Z,999.45
2018-07-22T01:34:41.568Z,999.46
2018-07-22T01:35:41.553Z,999.44
2018-07-22T01:36:41.567Z,999.46
2018-07-22T01:37:41.537Z,999.42
2018-07-22T01:38:41.524Z,999.41
2018-07-22T01:39:41.514Z,999.42
2018-07-22T01:40:41.501Z,999.42
2018-07-22T01:41:41.489Z,999.44
2018-07-22T01:42:41.506Z,999.45
2018-07-22T01:43:41.467Z,999.47
2018-07-22T01:44:41.457Z,999.44
2018-07-22T01:45:41.448Z,999.47
2018-07-22T01:46:41.435Z,999.43
2018-07-22T01:47:41.427Z,999.47
2018-07-22T01:48:41.428Z,999.45
2018-07-22T01:49:41.408Z,999.43
2018-07-22T01:50:41.394Z,999.47
2018-07-22T01:51:41.385Z,999.43
2018-07-22T01:52:41.373Z,999.46
2018-07-22T01:53:41.372Z,999.48
2018-07-22T01:54:41.351Z,999.48
2018-07-22T01:55:41.338Z,999.49
2018-07-22T01:56:41.330Z,999.49
2018-07-22T01:57:41.340Z,999.49
2018-07-22T01:58:41.310Z,999.48
2018-07-22T01:59:41.295Z,999.49
2018-07-22T02:00:41.286Z,999.49
2018-07-22T02:01:41.303Z,999.49
2018-07-22T02:02:41.265Z,999.51
2018-07-22T02:03:41.263Z,999.55
2018-07-22T02:04:41.255Z,999.47
2018-07-22T02:05:41.233Z,999.50
2018-07-22T02:06:41.223Z,999.51
2018-07-22T02:07:41.212Z,999.48
2018-07-22T02:08:41.213Z,999.45
2018-07-22T02:09:41.187Z,999.48
2018-07-22T02:10:41.176Z,999.47
2018-07-22T02:11:41.167Z,999.44
2018-07-22T02:12:41.155Z,999.44
2018-07-22T02:13:41.160Z,999.45
2018-07-22T02:14:41.137Z,999.47
2018-07-22T02:15:41.125Z,999.46
2018-07-22T02:16:41.127Z,999.46
2018-07-22T02:17:41.103Z,999.45
2018-07-22T02:18:41.093Z,999.48
2018-07-22T02:19:41.082Z,999.43
2018-07-22T02:20:41.072Z,999.43
2018-07-22T02:21:41.072Z,999.45
2018-07-22T02:22:41.051Z,999.45
2018-07-22T02:23:41.035Z,999.45
2018-07-22T02:24:41.028Z,999.44
2018-07-22T02:25:41.028Z,999.46
2018-07-22T02:26:41.003Z,999.43
2018-07-22T02:27:40.992Z,999.47
2018-07-22T02:28:40.981Z,999.50
2018-07-22T02:29:40.972Z,999.50
2018-07-22T02:30:40.982Z,999.53
2018-07-22T02:31:40.949Z,999.49
2018-07-22T02:32:40.941Z,999.54
2018-07-22T02:33:40.933Z,999.52
2018-07-22T02:34:40.920Z,999.50
2018-07-22T02:35:40.906Z,999.51
2018-07-22T02:36:40.911Z,999.57
2018-07-22T02:37:40.900Z,999.59
2018-07-22T02:38:40.874Z,999.58
2018-07-22T02:39:40.863Z,999.59
2018-07-22T02:40:40.854Z,999.58
2018-07-22T02:41:40.841Z,999.60
2018-07-22T02:42:40.849Z,999.60
2018-07-22T02:43:40.833Z,999.63
2018-07-22T02:44:40.808Z,999.60
2018-07-22T02:45:40.796Z,999.61
2018-07-22T02:46:40.788Z,999.58
2018-07-22T02:47:40.792Z,999.58
2018-07-22T02:48:40.785Z,999.60
2018-07-22T02:49:40.766Z,999.55
2018-07-22T02:50:40.749Z,999.55
2018-07-22T02:51:40.734Z,999.58
2018-07-22T02:52:40.766Z,999.56
2018-07-22T02:53:40.715Z,999.56
2018-07-22T02:54:40.702Z,999.57
2018-07-22T02:55:40.690Z,999.58
2018-07-22T02:56:40.685Z,999.60
2018-07-22T02:57:40.670Z,999.64
2018-07-22T02:58:40.672Z,999.61
2018-07-22T02:59:40.663Z,999.62
2018-07-22T03:00:40.639Z,999.59
2018-07-22T03:01:40.627Z,999.62
2018-07-22T03:02:40.634Z,999.61
2018-07-22T03:03:40.605Z,999.62
2018-07-22T03:04:40.597Z,999.63
2018-07-22T03:05:40.587Z,999.59
2018-07-22T03:06:40.574Z,999.67
2018-07-22T03:07:40.564Z,999.71
2018-07-22T03:08:40.580Z,999.66
2018-07-22T03:09:40.541Z,999.66
2018-07-22T03:10:40.532Z,999.64
2018-07-22T03:11:40.519Z,999.68
2018-07-22T03:12:40.526Z,999.66
2018-07-22T03:13:40.498Z,999.69
2018-07-22T03:14:40.484Z,999.68
2018-07-22T03:15:40.476Z,999.65
2018-07-22T03:16:40.470Z,999.67
2018-07-22T03:17:40.461Z,999.73
2018-07-22T03:18:40.456Z,999.67
2018-07-22T03:19:40.436Z,999.70
2018-07-22T03:20:40.420Z,999.71
2018-07-22T03:21:40.425Z,999.75
2018-07-22T03:22:40.402Z,999.75
2018-07-22T03:23:40.406Z,999.75
2018-07-22T03:24:40.376Z,999.73
2018-07-22T03:25:40.368Z,999.74
2018-07-22T03:26:40.359Z,999.75
2018-07-22T03:27:40.347Z,999.74
2018-07-22T03:28:40.336Z,999.72
2018-07-22T03:29:40.337Z,999.79
2018-07-22T03:30:40.313Z,999.80
2018-07-22T03:31:40.304Z,999.75
2018-07-22T03:32:40.291Z,999.81
2018-07-22T03:33:40.279Z,999.84
2018-07-22T03:34:40.284Z,999.83
2018-07-22T03:35:40.261Z,999.85
2018-07-22T03:36:40.249Z,999.87
2018-07-22T03:37:40.248Z,999.88
2018-07-22T03:38:40.230Z,999.86
2018-07-22T03:39:40.234Z,999.87
2018-07-22T03:40:40.225Z,999.89
2018-07-22T03:41:40.194Z,999.87
2018-07-22T03:42:40.184Z,999.88
2018-07-22T03:43:40.175Z,999.91
2018-07-22T03:44:40.163Z,999.90
2018-07-22T03:45:40.155Z,999.88
2018-07-22T03:46:40.153Z,999.91
2018-07-22T03:47:40.148Z,999.94
2018-07-22T03:48:40.120Z,999.93
2018-07-22T03:49:40.112Z,999.93
2018-07-22T03:50:40.100Z,999.91
2018-07-22T03:51:40.105Z,1000.00
2018-07-22T03:52:40.077Z,999.98
2018-07-22T03:53:40.067Z,1000.00
2018-07-22T03:54:40.058Z,1000.01
2018-07-22T03:55:40.047Z,1000.03
2018-07-22T03:56:40.046Z,999.95
2018-07-22T03:57:40.027Z,1000.02
2018-07-22T03:58:40.011Z,1000.04
2018-07-22T03:59:40.006Z,1000.06
2018-07-22T04:00:39.993Z,1000.02
2018-07-22T04:01:39.997Z,1000.02
2018-07-22T04:02:39.971Z,1000.02
2018-07-22T04:03:39.960Z,1000.01
2018-07-22T04:04:39.946Z,1000.03
2018-07-22T04:05:39.936Z,1000.04
2018-07-22T04:06:39.967Z,1000.02
2018-07-22T04:07:39.915Z,1000.00
2018-07-22T04:08:39.907Z,1000.01
2018-07-22T04:09:39.896Z,1000.05
2018-07-22T04:10:39.882Z,1000.03
2018-07-22T04:11:39.873Z,1000.00
2018-07-22T04:12:39.894Z,1000.06
2018-07-22T04:13:39.852Z,1000.07
2018-07-22T04:14:39.841Z,1000.04
2018-07-22T04:15:39.828Z,1000.05
2018-07-22T04:16:39.821Z,1000.07
2018-07-22T04:17:39.809Z,1000.11
2018-07-22T04:18:39.813Z,1000.13
2018-07-22T04:19:39.783Z,1000.12
2018-07-22T04:20:39.775Z,1000.12
2018-07-22T04:21:39.764Z,1000.12
2018-07-22T04:22:39.773Z,1000.16
2018-07-22T04:23:39.742Z,1000.16
2018-07-22T04:24:39.733Z,1000.16
2018-07-22T04:25:39.723Z,1000.17
2018-07-22T04:26:39.710Z,1000.14
2018-07-22T04:27:39.699Z,1000.16
2018-07-22T04:28:39.706Z,1000.12
2018-07-22T04:29:39.680Z,1000.11
2018-07-22T04:30:39.669Z,1000.15
2018-07-22T04:31:39.670Z,1000.16
2018-07-22T04:32:39.647Z,1000.19
2018-07-22T04:33:39.655Z,1000.20
2018-07-22T04:34:39.630Z,1000.21
2018-07-22T04:35:39.614Z,1000.24
2018-07-22T04:36:39.602Z,1000.23
2018-07-22T04:37:39.593Z,1000.21
2018-07-22T04:38:39.583Z,1000.26
2018-07-22T04:39:39.611Z,1000.28
2018-07-22T04:40:39.561Z,1000.28
2018-07-22T04:41:39.553Z,1000.31
2018-07-22T04:42:39.540Z,1000.30
2018-07-22T04:43:39.525Z,1000.27
2018-07-22T04:44:39.518Z,1000.25
2018-07-22T04:45:39.518Z,1000.28
2018-07-22T04:46:39.496Z,1000.28
2018-07-22T04:47:39.485Z,1000.30
2018-07-22T04:48:39.477Z,1000.28
2018-07-22T04:49:39.469Z,1000.31
2018-07-22T04:50:39.465Z,1000.32
2018-07-22T04:51:39.440Z,1000.35
2018-07-22T04:52:39.432Z,1000.34
2018-07-22T04:53:39.496Z,1000.33
2018-07-22T04:54:39.408Z,1000.33
2018-07-22T04:55:39.413Z,1000.37
2018-07-22T04:56:39.386Z,1000.39
2018-07-22T04:57:39.377Z,1000.37
2018-07-22T04:58:39.367Z,1000.38
2018-07-22T04:59:39.354Z,1000.41
2018-07-22T05:00:39.357Z,1000.45
2018-07-22T05:01:39.333Z,1000.42
2018-07-22T05:02:39.322Z,1000.42
2018-07-22T05:03:39.311Z,1000.43
2018-07-22T05:04:39.314Z,1000.45
2018-07-22T05:05:39.289Z,1000.45
2018-07-22T05:06:39.281Z,1000.47
2018-07-22T05:07:39.269Z,1000.45
2018-07-22T05:08:39.260Z,1000.44
2018-07-22T05:09:39.260Z,1000.42
2018-07-22T05:10:39.240Z,1000.48
2018-07-22T05:11:39.225Z,1000.49
2018-07-22T05:12:39.215Z,1000.51
2018-07-22T05:13:39.218Z,1000.48
2018-07-22T05:14:39.196Z,1000.50
2018-07-22T05:15:39.201Z,1000.48
2018-07-22T05:16:39.172Z,1000.49
2018-07-22T05:17:39.164Z,1000.48
2018-07-22T05:18:39.152Z,1000.47
2018-07-22T05:19:39.141Z,1000.48
2018-07-22T05:20:39.144Z,1000.46
2018-07-22T05:21:39.121Z,1000.45
2018-07-22T05:22:39.110Z,1000.49
2018-07-22T05:23:39.096Z,1000.49
2018-07-22T05:24:39.089Z,1000.53
2018-07-22T05:25:39.092Z,1000.54
2018-07-22T05:26:39.080Z,1000.53
2018-07-22T05:27:39.056Z,1000.59
2018-07-22T05:28:39.060Z,1000.59
2018-07-22T05:29:39.033Z,1000.60
2018-07-22T05:30:39.024Z,1000.65
2018-07-22T05:31:39.011Z,1000.61
2018-07-22T05:32:39.017Z,1000.63
2018-07-22T05:33:38.991Z,1000.61
2018-07-22T05:34:38.982Z,1000.62
2018-07-22T05:35:38.971Z,1000.64
2018-07-22T05:36:38.972Z,1000.62
2018-07-22T05:37:38.947Z,1000.62
2018-07-22T05:38:38.954Z,1000.62
2018-07-22T05:39:38.925Z,1000.61
2018-07-22T05:40:38.915Z,1000.62
2018-07-22T05:41:38.904Z,1000.64
2018-07-22T05:42:38.895Z,1000.65
2018-07-22T05:43:38.903Z,1000.64
2018-07-22T05:44:38.871Z,1000.67
2018-07-22T05:45:38.865Z,1000.66
2018-07-22T05:46:38.851Z,1000.64
2018-07-22T05:47:38.841Z,1000.61
2018-07-22T05:48:38.831Z,1000.61
2018-07-22T05:49:38.833Z,1000.66
2018-07-22T05:50:38.805Z,1000.68
2018-07-22T05:51:38.797Z,1000.70
2018-07-22T05:52:38.784Z,1000.73
2018-07-22T05:53:38.796Z,1000.72
2018-07-22T05:54:38.765Z,1000.74
2018-07-22T05:55:38.752Z,1000.72
2018-07-22T05:56:38.740Z,1000.75
2018-07-22T05:57:38.733Z,1000.78
2018-07-22T05:58:38.722Z,1000.74
2018-07-22T05:59:38.723Z,1000.77
2018-07-22T06:00:38.702Z,1000.79
2018-07-22T06:01:38.690Z,1000.75
2018-07-22T06:02:38.676Z,1000.72
2018-07-22T06:03:38.667Z,1000.75
2018-07-22T06:04:38.670Z,1000.68
2018-07-22T06:05:38.644Z,1000.71
2018-07-22T06:06:38.633Z,1000.71
2018-07-22T06:07:38.623Z,1000.75
2018-07-22T06:08:38.611Z,1000.76
2018-07-22T06:09:38.602Z,1000.80
2018-07-22T06:10:38.602Z,1000.77
2018-07-22T06:11:38.583Z,1000.78
2018-07-22T06:12:38.567Z,1000.80
2018-07-22T06:13:38.559Z,1000.82
2018-07-22T06:14:38.588Z,1000.77
2018-07-22T06:15:38.536Z,1000.77
2018-07-22T06:16:38.569Z,1000.79
2018-07-22T06:17:38.564Z,1000.82
2018-07-22T06:18:38.503Z,1000.84
2018-07-22T06:19:38.495Z,1000.86
2018-07-22T06:20:38.498Z,1000.80
2018-07-22T06:21:38.470Z,1000.80
2018-07-22T06:22:38.460Z,1000.79
2018-07-22T06:23:38.449Z,1000.81
2018-07-22T06:24:38.441Z,1000.81
2018-07-22T06:25:38.440Z,1000.77
2018-07-22T06:26:38.418Z,1000.75
2018-07-22T06:27:38.405Z,1000.77
2018-07-22T06:28:38.410Z,1000.77
2018-07-22T06:29:38.386Z,1000.77
2018-07-22T06:30:38.374Z,1000.76
2018-07-22T06:31:38.385Z,1000.77
2018-07-22T06:32:38.351Z,1000.80
2018-07-22T06:33:38.341Z,1000.81
2018-07-22T06:34:38.329Z,1000.83
2018-07-22T06:35:38.321Z,1000.87
2018-07-22T06:36:38.308Z,1000.86
2018-07-22T06:37:38.313Z,1000.90
2018-07-22T06:38:38.305Z,1000.97
2018-07-22T06:39:38.277Z,1000.98
2018-07-22T06:40:38.264Z,1000.98
2018-07-22T06:41:38.253Z,1001.01
2018-07-22T06:42:38.245Z,1001.03
2018-07-22T06:43:38.234Z,1000.98
2018-07-22T06:44:38.264Z,1000.97
2018-07-22T06:45:38.213Z,1000.93
2018-07-22T06:46:38.292Z,1000.97
2018-07-22T06:47:38.191Z,1000.98
2018-07-22T06:48:38.177Z,1001.00
2018-07-22T06:49:38.166Z,1001.02
2018-07-22T06:50:38.170Z,1001.02
2018-07-22T06:51:38.147Z,1001.10
2018-07-22T06:52:38.141Z,1001.06
2018-07-22T06:53:38.192Z,1001.09
2018-07-22T06:54:38.128Z,1001.09
2018-07-22T06:55:38.104Z,1001.06
2018-07-22T06:56:38.107Z,1001.11
2018-07-22T06:57:38.079Z,1001.12
2018-07-22T06:58:38.071Z,1001.13
2018-07-22T06:59:38.056Z,1001.10
2018-07-22T07:00:38.061Z,1001.13
2018-07-22T07:01:38.057Z,1001.19
2018-07-22T07:02:38.025Z,1001.17
2018-07-22T07:03:38.015Z,1001.23
2018-07-22T07:04:38.004Z,1001.20
2018-07-22T07:05:37.996Z,1001.16
2018-07-22T07:06:37.982Z,1001.18
2018-07-22T07:07:37.985Z,1001.21
2018-07-22T07:08:38.001Z,1001.24
2018-07-22T07:09:37.957Z,1001.24
2018-07-22T07:10:37.943Z,1001.25
2018-07-22T07:11:37.929Z,1001.23
2018-07-22T07:12:37.937Z,1001.27
2018-07-22T07:13:37.910Z,1001.34
2018-07-22T07:14:37.905Z,1001.33
2018-07-22T07:15:37.889Z,1001.34
2018-07-22T07:16:37.877Z,1001.37
2018-07-22T07:17:37.865Z,1001.38
2018-07-22T07:18:37.869Z,1001.34
2018-07-22T07:19:37.845Z,1001.42
2018-07-22T07:20:37.832Z,1001.43
2018-07-22T07:21:37.820Z,1001.47
2018-07-22T07:22:37.849Z,1001.44
2018-07-22T07:23:37.799Z,1001.44
2018-07-22T07:24:37.789Z,1001.46
2018-07-22T07:25:37.778Z,1001.39
2018-07-22T07:26:37.815Z,1001.42
2018-07-22T07:27:37.757Z,1001.43
2018-07-22T07:28:37.760Z,1001.44
2018-07-22T07:29:37.735Z,1001.51
2018-07-22T07:30:37.729Z,1001.46
2018-07-22T07:31:37.716Z,1001.42
2018-07-22T07:32:37.709Z,1001.36
2018-07-22T07:33:37.745Z,1001.37
2018-07-22T07:34:37.683Z,1001.49
2018-07-22T07:35:37.678Z,1001.39
2018-07-22T07:36:37.665Z,1001.35
2018-07-22T07:37:37.654Z,1001.44
2018-07-22T07:38:37.646Z,1001.35
2018-07-22T07:39:37.646Z,1001.47
2018-07-22T07:40:37.620Z,1001.39
2018-07-22T07:41:37.617Z,1001.47
2018-07-22T07:42:37.601Z,1001.31
2018-07-22T07:43:37.590Z,1001.42
2018-07-22T07:44:37.591Z,1001.40
2018-07-22T07:45:37.583Z,1001.44
2018-07-22T07:46:37.564Z,1001.47
2018-07-22T07:47:37.548Z,1001.52
2018-07-22T07:48:37.538Z,1001.50
2018-07-22T07:49:37.525Z,1001.53
2018-07-22T07:50:37.514Z,1001.57
2018-07-22T07:51:37.530Z,1001.52
2018-07-22T07:52:37.492Z,1001.41
2018-07-22T07:53:37.484Z,1001.61
2018-07-22T07:54:37.475Z,1001.62
2018-07-22T07:55:37.460Z,1001.56
2018-07-22T07:56:37.454Z,1001.45
2018-07-22T07:57:37.457Z,1001.57
2018-07-22T07:58:37.433Z,1001.59
2018-07-22T07:59:37.421Z,1001.60
2018-07-22T08:00:37.408Z,1001.61
2018-07-22T08:01:37.422Z,1001.58
2018-07-22T08:02:37.388Z,1001.65
2018-07-22T08:03:37.379Z,1001.63
2018-07-22T08:04:37.368Z,1001.67
2018-07-22T08:05:37.414Z,1001.60
2018-07-22T08:06:37.355Z,1001.53
2018-07-22T08:07:37.350Z,1001.54
2018-07-22T08:08:37.329Z,1001.68
2018-07-22T08:09:37.312Z,1001.68
2018-07-22T08:10:37.302Z,1001.69
2018-07-22T08:11:37.349Z,1001.63
2018-07-22T08:12:37.281Z,1001.63
2018-07-22T08:13:37.270Z,1001.68
2018-07-22T08:14:37.262Z,1001.67
2018-07-22T08:15:37.252Z,1001.73
2018-07-22T08:16:37.245Z,1001.75
2018-07-22T08:17:37.245Z,1001.76
2018-07-22T08:18:37.231Z,1001.75
2018-07-22T08:19:37.209Z,1001.80
2018-07-22T08:20:37.199Z,1001.73
2018-07-22T08:21:37.267Z,1001.76
2018-07-22T08:22:37.178Z,1001.88
2018-07-22T08:23:37.183Z,1001.80
2018-07-22T08:24:37.157Z,1001.84
2018-07-22T08:25:37.144Z,1001.79
2018-07-22T08:26:37.138Z,1001.75
2018-07-22T08:27:37.137Z,1001.73
2018-07-22T08:28:37.133Z,1001.68
2018-07-22T08:29:37.103Z,1001.71
2018-07-22T08:30:37.141Z,1001.65
2018-07-22T08:31:37.083Z,1001.65
2018-07-22T08:32:37.088Z,1001.68
2018-07-22T08:33:37.060Z,1001.75
2018-07-22T08:34:37.068Z,1001.74
2018-07-22T08:35:37.043Z,1001.76
2018-07-22T08:36:37.034Z,1001.64
2018-07-22T08:37:37.022Z,1001.67
2018-07-22T08:38:37.012Z,1001.68
2018-07-22T08:39:37.024Z,1001.72
2018-07-22T08:40:36.988Z,1001.86
2018-07-22T08:41:37.071Z,1001.89
2018-07-22T08:42:36.968Z,1001.92
2018-07-22T08:43:36.959Z,1001.89
2018-07-22T08:44:36.946Z,1001.89
2018-07-22T08:45:36.950Z,1001.86
2018-07-22T08:46:36.928Z,1001.93
2018-07-22T08:47:36.929Z,1001.86
2018-07-22T08:48:36.910Z,1001.91
2018-07-22T08:49:36.897Z,1001.85
2018-07-22T08:50:36.897Z,1001.91
2018-07-22T08:51:36.875Z,1001.87
2018-07-22T08:52:36.867Z,1001.91
2018-07-22T08:53:36.856Z,1001.92
2018-07-22T08:54:36.848Z,1001.94
2018-07-22T08:55:36.850Z,1001.89
2018-07-22T08:56:36.837Z,1001.92
2018-07-22T08:57:36.812Z,1001.89
2018-07-22T08:58:36.802Z,1001.94
2018-07-22T08:59:36.792Z,1002.02
2018-07-22T09:00:36.796Z,1002.01
2018-07-22T09:01:36.773Z,1002.02
2018-07-22T09:02:36.764Z,1002.05
2018-07-22T09:03:36.751Z,1001.97
2018-07-22T09:04:36.755Z,1001.99
2018-07-22T09:05:36.735Z,1001.99
2018-07-22T09:06:36.721Z,1002.00
2018-07-22T09:07:36.727Z,1002.05
2018-07-22T09:08:36.702Z,1002.07
2018-07-22T09:09:36.691Z,1002.06
2018-07-22T09:10:36.686Z,1002.16
2018-07-22T09:11:36.705Z,1002.12
2018-07-22T09:12:36.701Z,1002.15
2018-07-22T09:13:36.648Z,1002.11
2018-07-22T09:14:36.643Z,1002.13
2018-07-22T09:15:36.632Z,1002.14
2018-07-22T09:16:36.625Z,1002.20
2018-07-22T09:17:36.615Z,1002.19
2018-07-22T09:18:36.620Z,1002.14
2018-07-22T09:19:36.594Z,1002.17
2018-07-22T09:20:36.582Z,1002.24
2018-07-22T09:21:36.572Z,1002.18
2018-07-22T09:22:36.561Z,1002.19
2018-07-22T09:23:36.552Z,1002.17
2018-07-22T09:24:36.959Z,1002.21
2018-07-22T09:25:36.529Z,1002.25
2018-07-22T09:26:36.521Z,1002.25
2018-07-22T09:27:36.512Z,1002.21
2018-07-22T09:28:36.499Z,1002.27
2018-07-22T09:29:36.491Z,1002.23
2018-07-22T09:30:36.504Z,1002.27
2018-07-22T09:31:36.470Z,1002.27
2018-07-22T09:32:36.459Z,1002.32
2018-07-22T09:33:36.449Z,1002.37
2018-07-22T09:34:36.439Z,1002.37
2018-07-22T09:35:36.428Z,1002.37
2018-07-22T09:36:36.490Z,1002.32
2018-07-22T09:37:36.411Z,1002.29
2018-07-22T09:38:36.399Z,1002.32
2018-07-22T09:39:36.401Z,1002.32
2018-07-22T09:40:36.380Z,1002.31
2018-07-22T09:41:36.384Z,1002.35
2018-07-22T09:42:36.358Z,1002.38
2018-07-22T09:43:36.351Z,1002.41
2018-07-22T09:44:36.342Z,1002.39
2018-07-22T09:45:36.329Z,1002.35
2018-07-22T09:46:36.336Z,1002.34
2018-07-22T09:47:36.309Z,1002.35
2018-07-22T09:48:36.305Z,1002.36
2018-07-22T09:49:36.289Z,1002.39
2018-07-22T09:50:36.283Z,1002.39
2018-07-22T09:51:36.292Z,1002.39
2018-07-22T09:52:36.261Z,1002.39
2018-07-22T09:53:36.290Z,1002.41
2018-07-22T09:54:36.242Z,1002.44
2018-07-22T09:55:36.232Z,1002.43
2018-07-22T09:56:36.219Z,1002.45
2018-07-22T09:57:36.251Z,1002.44
2018-07-22T09:58:36.262Z,1002.47
2018-07-22T09:59:36.189Z,1002.43
2018-07-22T10:00:36.179Z,1002.35
2018-07-22T10:01:36.174Z,1002.32
2018-07-22T10:02:36.162Z,1002.38
2018-07-22T10:03:36.164Z,1002.39
2018-07-22T10:04:36.186Z,1002.40
2018-07-22T10:05:36.136Z,1002.33
2018-07-22T10:06:36.122Z,1002.33
2018-07-22T10:07:36.113Z,1002.37
2018-07-22T10:08:36.120Z,1002.30
2018-07-22T10:09:36.097Z,1002.33
2018-07-22T10:10:36.089Z,1002.37
2018-07-22T10:11:36.074Z,1002.37
2018-07-22T10:12:36.084Z,1002.31
2018-07-22T10:13:36.049Z,1002.32
2018-07-22T10:14:36.103Z,1002.30
2018-07-22T10:15:36.035Z,1002.34
2018-07-22T10:16:36.024Z,1002.36
2018-07-22T10:17:36.066Z,1002.38
2018-07-22T10:18:36.025Z,1002.38
2018-07-22T10:19:35.995Z,1002.32
2018-07-22T10:20:36.003Z,1002.34
2018-07-22T10:21:35.977Z,1002.35
2018-07-22T10:22:35.963Z,1002.38
2018-07-22T10:23:35.955Z,1002.41
2018-07-22T10:24:35.945Z,1002.42
2018-07-22T10:25:35.942Z,1002.36
2018-07-22T10:26:35.940Z,1002.36
2018-07-22T10:27:35.913Z,1002.36
2018-07-22T10:28:35.947Z,1002.42
2018-07-22T10:29:35.911Z,1002.34
2018-07-22T10:30:35.886Z,1002.41
2018-07-22T10:31:35.878Z,1002.35
2018-07-22T10:32:35.864Z,1002.40
2018-07-22T10:33:35.857Z,1002.38
2018-07-22T10:34:35.864Z,1002.39
2018-07-22T10:35:35.837Z,1002.43
2018-07-22T10:36:35.825Z,1002.45
2018-07-22T10:37:35.820Z,1002.45
2018-07-22T10:38:35.805Z,1002.45
2018-07-22T10:39:35.796Z,1002.41
2018-07-22T10:40:35.803Z,1002.48
2018-07-22T10:41:35.788Z,1002.46
2018-07-22T10:42:35.767Z,1002.46
2018-07-22T10:43:35.772Z,1002.45
2018-07-22T10:44:35.747Z,1002.46
2018-07-22T10:45:35.737Z,1002.51
2018-07-22T10:46:35.863Z,1002.44
2018-07-22T10:47:35.721Z,1002.50
2018-07-22T10:48:35.711Z,1002.50
2018-07-22T10:49:35.715Z,1002.50
2018-07-22T10:50:35.691Z,1002.50
2018-07-22T10:51:35.736Z,1002.45
2018-07-22T10:52:35.686Z,1002.49
2018-07-22T10:53:35.658Z,1002.42
2018-07-22T10:54:35.651Z,1002.40
2018-07-22T10:55:35.644Z,1002.15
2018-07-22T10:56:35.632Z,1002.44
2018-07-22T10:57:35.653Z,1002.48
2018-07-22T10:58:35.613Z,1002.50
2018-07-22T10:59:35.602Z,1002.42
2018-07-22T11:00:35.595Z,1002.44
2018-07-22T11:01:35.585Z,1002.46
2018-07-22T11:02:35.573Z,1002.41
2018-07-22T11:03:35.579Z,1002.44
2018-07-22T11:04:35.555Z,1002.44
2018-07-22T11:05:35.548Z,1002.44
2018-07-22T11:06:35.538Z,1002.37
2018-07-22T11:07:35.529Z,1002.40
2018-07-22T11:08:35.543Z,1002.40
2018-07-22T11:09:35.509Z,1002.44
2018-07-22T11:10:35.500Z,1002.41
2018-07-22T11:11:35.488Z,1002.37
2018-07-22T11:12:35.479Z,1002.39
2018-07-22T11:13:35.470Z,1002.40
2018-07-22T11:14:35.495Z,1002.40
2018-07-22T11:15:35.452Z,1002.38
2018-07-22T11:16:35.445Z,1002.41
2018-07-22T11:17:35.431Z,1002.42
2018-07-22T11:18:35.427Z,1002.42
2018-07-22T11:19:35.415Z,1002.42
2018-07-22T11:20:35.420Z,1002.36
2018-07-22T11:21:35.400Z,1002.41
2018-07-22T11:22:35.389Z,1002.45
2018-07-22T11:23:35.379Z,1002.41
2018-07-22T11:24:35.383Z,1002.39
2018-07-22T11:25:35.358Z,1002.36
2018-07-22T11:26:35.348Z,1002.35
2018-07-22T11:27:35.339Z,1002.35
2018-07-22T11:28:35.366Z,1002.40
2018-07-22T11:29:35.319Z,1002.39
2018-07-22T11:30:35.309Z,1002.39
2018-07-22T11:31:35.302Z,1002.41
2018-07-22T11:32:35.320Z,1002.37
2018-07-22T11:33:35.283Z,1002.34
2018-07-22T11:34:35.269Z,1002.33
2018-07-22T11:35:35.263Z,1002.36
2018-07-22T11:36:35.249Z,1002.39
2018-07-22T11:37:35.243Z,1002.40
2018-07-22T11:38:35.244Z,1001.92
2018-07-22T11:39:35.223Z,1001.74
2018-07-22T11:40:35.213Z,1001.74
2018-07-22T11:41:35.206Z,1001.96
2018-07-22T11:42:35.194Z,1002.35
2018-07-22T11:43:35.206Z,1002.25
2018-07-22T11:44:35.176Z,1002.27
2018-07-22T11:45:35.167Z,1002.25
2018-07-22T11:46:35.160Z,1002.28
2018-07-22T11:47:35.153Z,1002.17
2018-07-22T11:48:35.139Z,1002.27
2018-07-22T11:49:35.148Z,1002.29
2018-07-22T11:50:35.172Z,1002.27
2018-07-22T11:51:35.112Z,1002.22
2018-07-22T11:52:35.103Z,1002.20
2018-07-22T11:53:35.098Z,1002.23
2018-07-22T11:54:35.084Z,1002.14
2018-07-22T11:55:35.088Z,1002.24
2018-07-22T11:56:35.064Z,1002.26
2018-07-22T11:57:35.055Z,1002.28
2018-07-22T11:58:35.045Z,1002.25
2018-07-22T11:59:35.037Z,1002.24
2018-07-22T12:00:35.041Z,1002.26
2018-07-22T12:01:35.081Z,1002.28
2018-07-22T12:02:35.011Z,1002.24
2018-07-22T12:03:35.003Z,1002.27
2018-07-22T12:04:34.990Z,1002.30
2018-07-22T12:05:35.000Z,1002.32
2018-07-22T12:06:34.975Z,1002.00
2018-07-22T12:07:34.987Z,1002.01
2018-07-22T12:08:34.954Z,1002.14
2018-07-22T12:09:34.943Z,1002.20
2018-07-22T12:10:34.949Z,1001.89
2018-07-22T12:11:34.923Z,1001.95
2018-07-22T12:12:35.011Z,1001.79